createdAt,value
2022-11-24T00:00:45.226Z,92930.25
2022-11-24T00:04:01.112Z,92922.56
2022-11-24T00:07:04.804Z,92921.91
2022-11-24T00:10:08.083Z,92932.00
2022-11-24T00:13:11.814Z,92939.84
2022-11-24T00:16:16.335Z,92933.69
2022-11-24T00:19:19.860Z,92937.00
2022-11-24T00:22:23.895Z,92940.84
2022-11-24T00:25:27.799Z,92938.28
2022-11-24T00:28:31.306Z,92949.84
2022-11-24T00:31:37.907Z,92947.72
2022-11-24T00:34:42.981Z,92953.13
2022-11-24T00:37:46.255Z,92954.91
2022-11-24T00:40:50.255Z,92961.91
2022-11-24T00:43:54.252Z,92959.66
2022-11-24T00:46:58.257Z,92953.19
2022-11-24T00:50:01.823Z,92955.56
2022-11-24T00:53:05.867Z,92954.94
2022-11-24T00:56:11.076Z,92952.53
2022-11-24T00:59:14.971Z,92955.94
2022-11-24T01:02:18.608Z,92956.97
2022-11-24T01:05:22.651Z,92956.25
2022-11-24T01:08:26.267Z,92957.50
2022-11-24T01:11:56.059Z,92954.22
2022-11-24T01:14:59.783Z,92955.41
2022-11-24T01:18:03.395Z,92952.72
2022-11-24T01:21:10.013Z,92958.03
2022-11-24T01:24:14.914Z,92965.22
2022-11-24T01:27:18.544Z,92951.56
2022-11-24T01:30:23.897Z,92953.38
2022-11-24T01:33:27.756Z,92955.19
2022-11-24T01:36:31.826Z,92958.53
2022-11-24T01:39:35.448Z,92959.13
2022-11-24T01:42:50.073Z,92952.41
2022-11-24T01:45:54.320Z,92949.25
2022-11-24T01:49:27.790Z,92947.31
2022-11-24T01:52:40.262Z,92939.97
2022-11-24T01:55:43.317Z,92937.53
2022-11-24T01:58:48.403Z,92941.66
2022-11-24T02:01:53.493Z,92945.53
2022-11-24T02:05:02.361Z,92940.34
2022-11-24T02:08:08.610Z,92944.41
2022-11-24T02:11:11.676Z,92941.88
2022-11-24T02:14:18.678Z,92948.28
2022-11-24T02:17:22.492Z,92948.16
2022-11-24T02:20:26.991Z,92945.09
2022-11-24T02:23:45.069Z,92946.94
2022-11-24T02:26:50.101Z,92956.88
2022-11-24T02:29:53.899Z,92961.22
2022-11-24T02:32:57.516Z,92959.53
2022-11-24T02:36:01.179Z,92956.41
2022-11-24T02:39:04.522Z,92955.19
2022-11-24T02:42:12.598Z,92961.47
2022-11-24T02:45:17.602Z,92960.63
2022-11-24T02:48:21.203Z,92957.69
2022-11-24T02:51:25.268Z,92957.28
2022-11-24T02:54:29.296Z,92956.31
2022-11-24T02:57:33.185Z,92947.19
2022-11-24T03:00:36.508Z,92946.91
2022-11-24T03:03:40.728Z,92960.75
2022-11-24T03:06:44.261Z,92960.44
2022-11-24T03:09:48.164Z,92953.16
2022-11-24T03:12:51.790Z,92944.00
2022-11-24T03:15:55.853Z,92940.66
2022-11-24T03:19:00.148Z,92939.94
2022-11-24T03:22:05.090Z,92944.50
2022-11-24T03:25:09.274Z,92942.84
2022-11-24T03:28:13.254Z,92937.63
2022-11-24T03:31:17.160Z,92940.22
2022-11-24T03:34:21.367Z,92939.81
2022-11-24T03:37:24.599Z,92943.44
2022-11-24T03:40:28.567Z,92935.34
2022-11-24T03:43:33.410Z,92943.72
2022-11-24T03:46:37.585Z,92946.34
2022-11-24T03:49:42.047Z,92941.38
2022-11-24T03:52:46.063Z,92936.91
2022-11-24T03:55:49.594Z,92936.66
2022-11-24T03:58:53.498Z,92942.03
2022-11-24T04:01:57.228Z,92943.44
2022-11-24T04:05:01.555Z,92941.72
2022-11-24T04:08:06.361Z,92944.88
2022-11-24T04:11:30.050Z,92945.69
2022-11-24T04:14:33.821Z,92949.84
2022-11-24T04:17:38.086Z,92951.69
2022-11-24T04:20:42.713Z,92946.91
2022-11-24T04:23:47.017Z,92941.47
2022-11-24T04:26:50.293Z,92944.75
2022-11-24T04:29:54.264Z,92944.84
2022-11-24T04:32:57.958Z,92943.88
2022-11-24T04:36:01.505Z,92950.50
2022-11-24T04:39:25.523Z,92947.66
2022-11-24T04:42:29.050Z,92940.63
2022-11-24T04:45:32.254Z,92938.69
2022-11-24T04:48:36.199Z,92930.19
2022-11-24T04:51:40.615Z,92931.78
2022-11-24T04:54:44.702Z,92924.47
2022-11-24T04:57:48.297Z,92930.81
2022-11-24T05:00:52.248Z,92922.22
2022-11-24T05:03:56.511Z,92918.88
2022-11-24T05:07:00.057Z,92916.97
2022-11-24T05:10:22.100Z,92920.59
2022-11-24T05:13:26.037Z,92914.34
2022-11-24T05:16:29.750Z,92922.13
2022-11-24T05:19:34.286Z,92914.09
2022-11-24T05:22:37.901Z,92916.66
2022-11-24T05:25:47.327Z,92920.81
2022-11-24T05:28:51.382Z,92922.56
2022-11-24T05:31:54.758Z,92919.81
2022-11-24T05:34:58.901Z,92926.47
2022-11-24T05:38:03.103Z,92929.94
2022-11-24T05:41:07.014Z,92922.28
2022-11-24T05:44:10.973Z,92925.44
2022-11-24T05:47:14.524Z,92920.66
2022-11-24T05:50:20.786Z,92924.97
2022-11-24T05:53:24.505Z,92927.84
2022-11-24T05:56:28.103Z,92926.56
2022-11-24T05:59:31.450Z,92926.06
2022-11-24T06:02:35.802Z,92929.00
2022-11-24T06:05:39.382Z,92926.34
2022-11-24T06:08:43.353Z,92924.03
2022-11-24T06:11:48.755Z,92930.28
2022-11-24T06:14:52.425Z,92930.69
2022-11-24T06:17:56.905Z,92932.91
2022-11-24T06:21:10.677Z,92937.94
2022-11-24T06:24:15.324Z,92939.28
2022-11-24T06:27:19.833Z,92940.22
2022-11-24T06:30:23.407Z,92941.53
2022-11-24T06:33:27.289Z,92941.53
2022-11-24T06:36:30.831Z,92947.78
2022-11-24T06:39:34.799Z,92953.19
2022-11-24T06:42:38.815Z,92951.63
2022-11-24T06:45:42.754Z,92956.09
2022-11-24T06:48:45.963Z,92964.41
2022-11-24T06:51:50.035Z,92954.06
2022-11-24T06:54:54.245Z,92958.22
2022-11-24T06:57:58.144Z,92963.97
2022-11-24T07:01:01.738Z,92965.09
2022-11-24T07:04:05.743Z,92968.31
2022-11-24T07:07:09.359Z,92979.91
2022-11-24T07:10:13.270Z,92969.34
2022-11-24T07:13:16.635Z,92970.66
2022-11-24T07:16:22.945Z,92982.13
2022-11-24T07:19:25.878Z,92987.06
2022-11-24T07:22:30.199Z,92983.41
2022-11-24T07:25:34.208Z,92984.63
2022-11-24T07:28:38.748Z,92988.59
2022-11-24T07:31:43.055Z,92989.22
2022-11-24T07:34:47.137Z,92998.00
2022-11-24T07:37:50.266Z,92995.03
2022-11-24T07:40:53.192Z,92994.47
2022-11-24T07:43:57.060Z,93005.00
2022-11-24T07:47:00.947Z,92996.47
2022-11-24T07:50:04.588Z,92998.06
2022-11-24T07:53:08.544Z,93004.00
2022-11-24T07:56:13.099Z,93003.88
2022-11-24T07:59:16.507Z,93013.47
2022-11-24T08:02:20.169Z,93016.25
2022-11-24T08:05:23.977Z,93014.88
2022-11-24T08:08:27.875Z,93020.97
2022-11-24T08:11:33.791Z,93020.66
2022-11-24T08:14:36.921Z,93019.72
2022-11-24T08:17:40.990Z,93022.25
2022-11-24T08:20:44.176Z,93022.25
2022-11-24T08:23:47.707Z,93024.09
2022-11-24T08:26:51.362Z,93028.16
2022-11-24T08:29:55.395Z,93029.22
2022-11-24T08:33:02.246Z,93025.56
2022-11-24T08:36:08.782Z,93033.69
2022-11-24T08:39:12.678Z,93035.13
2022-11-24T08:42:17.067Z,93037.19
2022-11-24T08:45:22.479Z,93031.75
2022-11-24T08:48:27.236Z,93040.66
2022-11-24T08:51:30.796Z,93044.91
2022-11-24T08:54:35.066Z,93045.47
2022-11-24T08:57:38.879Z,93046.84
2022-11-24T09:00:42.885Z,93048.28
2022-11-24T09:03:51.100Z,93052.41
2022-11-24T09:06:55.333Z,93058.25
2022-11-24T09:09:58.835Z,93063.63
2022-11-24T09:13:03.113Z,93075.25
2022-11-24T09:16:12.849Z,93079.47
2022-11-24T09:19:16.689Z,93091.94
2022-11-24T09:22:20.228Z,93097.66
2022-11-24T09:25:26.922Z,93097.78
2022-11-24T09:28:30.106Z,93100.38
2022-11-24T09:31:36.674Z,93105.91
2022-11-24T09:34:40.196Z,93105.59
2022-11-24T09:37:45.659Z,93112.50
2022-11-24T09:40:50.541Z,93110.53
2022-11-24T09:44:04.270Z,93109.41
2022-11-24T09:47:13.242Z,93118.56
2022-11-24T09:50:43.404Z,93128.88
2022-11-24T09:54:08.970Z,93134.34
2022-11-24T09:57:14.631Z,93130.47
2022-11-24T10:00:18.499Z,93135.38
2022-11-24T10:03:51.694Z,93133.59
2022-11-24T10:07:12.556Z,93150.09
2022-11-24T10:10:35.593Z,93141.03
2022-11-24T10:14:21.339Z,93145.41
2022-11-24T10:17:52.211Z,93150.94
2022-11-24T10:21:28.871Z,93153.09
2022-11-24T10:24:52.849Z,93156.84
2022-11-24T10:28:01.022Z,93146.31
2022-11-24T10:31:24.037Z,93156.34
2022-11-24T10:34:35.387Z,93166.34
2022-11-24T10:37:48.591Z,93178.25
2022-11-24T10:40:58.081Z,93169.47
2022-11-24T10:44:02.017Z,93174.44
2022-11-24T10:47:13.420Z,93169.84
2022-11-24T10:50:19.946Z,93177.91
2022-11-24T10:53:32.481Z,93171.13
2022-11-24T10:56:43.063Z,93178.22
2022-11-24T10:59:47.240Z,93182.19
2022-11-24T11:03:10.562Z,93174.66
2022-11-24T11:06:25.312Z,93176.31
2022-11-24T11:09:28.096Z,93186.63
2022-11-24T11:12:46.873Z,93187.53
2022-11-24T11:15:50.459Z,93185.53
2022-11-24T11:18:53.956Z,93190.41
2022-11-24T11:22:27.699Z,93203.59
2022-11-24T11:25:36.155Z,93194.81
2022-11-24T11:28:39.655Z,93196.16
2022-11-24T11:34:01.103Z,93187.09
2022-11-24T11:35:06.115Z,93201.28
2022-11-24T11:38:11.762Z,93199.94
2022-11-24T11:41:22.672Z,93200.16
2022-11-24T11:44:39.239Z,93200.22
2022-11-24T11:47:55.253Z,93211.72
2022-11-24T11:51:23.680Z,93205.28
2022-11-24T11:54:49.350Z,93213.19
2022-11-24T11:58:14.512Z,93211.72
2022-11-24T12:01:55.187Z,93217.78
2022-11-24T12:05:01.825Z,93219.13
2022-11-24T12:08:56.019Z,93234.38
2022-11-24T12:12:33.853Z,93235.13
2022-11-24T12:15:49.112Z,93240.16
2022-11-24T12:18:58.872Z,93248.09
2022-11-24T12:22:14.775Z,93244.41
2022-11-24T12:25:42.189Z,93250.53
2022-11-24T12:28:56.478Z,93259.25
2022-11-24T12:32:24.960Z,93258.34
2022-11-24T12:35:41.670Z,93260.78
2022-11-24T12:39:11.524Z,93258.34
2022-11-24T12:42:39.736Z,93264.31
2022-11-24T12:46:01.328Z,93265.56
2022-11-24T12:49:11.078Z,93267.63
2022-11-24T12:52:26.645Z,93273.84
2022-11-24T12:55:33.104Z,93268.81
2022-11-24T12:58:36.512Z,93276.34
2022-11-24T13:02:00.412Z,93272.28
2022-11-24T13:05:25.735Z,93267.84
2022-11-24T13:08:52.984Z,93264.16
2022-11-24T13:12:15.978Z,93267.22
2022-11-24T13:15:44.718Z,93276.59
2022-11-24T13:18:53.317Z,93274.16
2022-11-24T13:22:02.811Z,93286.31
2022-11-24T13:25:16.641Z,93284.56
2022-11-24T13:29:06.147Z,93291.50
2022-11-24T13:32:16.092Z,93289.16
2022-11-24T13:35:19.085Z,93284.69
2022-11-24T13:38:42.060Z,93286.31
2022-11-24T13:41:51.425Z,93291.19
2022-11-24T13:44:57.591Z,93286.31
2022-11-24T13:48:01.289Z,93282.28
2022-11-24T13:51:10.463Z,93288.59
2022-11-24T13:54:15.740Z,93292.97
2022-11-24T13:57:40.528Z,93295.47
2022-11-24T14:01:13.086Z,93297.88
2022-11-24T14:04:31.836Z,93298.38
2022-11-24T14:07:37.065Z,93298.50
2022-11-24T14:10:43.195Z,93296.47
2022-11-24T14:13:47.121Z,93304.59
2022-11-24T14:17:28.114Z,93305.25
2022-11-24T14:20:31.959Z,93308.75
2022-11-24T14:23:34.833Z,93311.00
2022-11-24T14:26:40.935Z,93313.47
2022-11-24T14:29:58.537Z,93317.16
2022-11-24T14:33:04.301Z,93312.53
2022-11-24T14:36:18.184Z,93314.91
2022-11-24T14:39:26.317Z,93323.28
2022-11-24T14:42:29.539Z,93322.75
2022-11-24T14:45:33.670Z,93320.38
2022-11-24T14:48:40.764Z,93317.53
2022-11-24T14:51:46.061Z,93326.72
2022-11-24T14:54:54.969Z,93322.59
2022-11-24T14:57:58.699Z,93318.94
2022-11-24T15:01:33.520Z,93324.38
2022-11-24T15:05:04.525Z,93328.50
2022-11-24T15:08:13.853Z,93328.91
2022-11-24T15:11:17.616Z,93332.41
2022-11-24T15:14:44.386Z,93339.75
2022-11-24T15:17:56.844Z,93334.75
2022-11-24T15:21:00.659Z,93342.88
2022-11-24T15:24:14.864Z,93347.59
2022-11-24T15:27:18.706Z,93348.47
2022-11-24T15:30:22.303Z,93353.81
2022-11-24T15:33:25.269Z,93354.50
2022-11-24T15:36:28.372Z,93356.88
2022-11-24T15:39:31.874Z,93358.19
2022-11-24T15:42:34.736Z,93358.63
2022-11-24T15:45:38.265Z,93361.84
2022-11-24T15:48:41.197Z,93359.81
2022-11-24T15:51:46.358Z,93361.56
2022-11-24T15:54:53.477Z,93366.56
2022-11-24T15:57:56.813Z,93373.97
2022-11-24T16:01:00.212Z,93365.97
2022-11-24T16:04:03.627Z,93363.03
2022-11-24T16:07:07.672Z,93377.59
2022-11-24T16:10:35.882Z,93378.50
2022-11-24T16:13:39.387Z,93377.31
2022-11-24T16:16:42.903Z,93381.72
2022-11-24T16:19:45.822Z,93386.75
2022-11-24T16:22:48.794Z,93372.75
2022-11-24T16:25:51.744Z,93375.13
2022-11-24T16:28:54.661Z,93374.84
2022-11-24T16:31:58.582Z,93373.34
2022-11-24T16:35:01.458Z,93383.22
2022-11-24T16:38:04.446Z,93395.66
2022-11-24T16:41:07.878Z,93394.38
2022-11-24T16:44:11.172Z,93401.72
2022-11-24T16:47:14.176Z,93394.38
2022-11-24T16:50:17.368Z,93391.88
2022-11-24T16:53:21.063Z,93394.22
2022-11-24T16:56:24.824Z,93388.47
2022-11-24T16:59:27.757Z,93394.22
2022-11-24T17:02:31.797Z,93395.25
2022-11-24T17:05:35.351Z,93399.06
2022-11-24T17:08:40.383Z,93400.84
2022-11-24T17:11:44.110Z,93399.66
2022-11-24T17:15:09.341Z,93396.88
2022-11-24T17:18:24.599Z,93398.47
2022-11-24T17:21:28.917Z,93405.06
2022-11-24T17:24:32.529Z,93398.91
2022-11-24T17:27:35.467Z,93409.34
2022-11-24T17:30:39.079Z,93418.00
2022-11-24T17:33:42.622Z,93417.13
2022-11-24T17:36:46.594Z,93414.63
2022-11-24T17:40:12.626Z,93406.97
2022-11-24T17:43:12.314Z,93399.34
2022-11-24T17:46:15.761Z,93398.75
2022-11-24T17:49:21.593Z,93402.72
2022-11-24T17:52:26.713Z,93389.78
2022-11-24T17:55:30.492Z,93409.50
2022-11-24T17:58:39.718Z,93405.22
2022-11-24T18:01:45.531Z,93402.88
2022-11-24T18:04:48.365Z,93397.63
2022-11-24T18:07:51.596Z,93406.88
2022-11-24T18:10:55.096Z,93411.38
2022-11-24T18:14:02.143Z,93412.94
2022-11-24T18:17:05.548Z,93414.28
2022-11-24T18:20:09.889Z,93414.88
2022-11-24T18:23:13.572Z,93413.38
2022-11-24T18:26:18.158Z,93420.25
2022-11-24T18:29:22.047Z,93419.34
2022-11-24T18:32:25.572Z,93421.94
2022-11-24T18:35:28.379Z,93430.56
2022-11-24T18:38:31.664Z,93423.09
2022-11-24T18:41:35.035Z,93432.06
2022-11-24T18:44:38.608Z,93431.53
2022-11-24T18:47:41.489Z,93423.72
2022-11-24T18:50:44.737Z,93417.91
2022-11-24T18:53:53.841Z,93426.66
2022-11-24T18:57:02.958Z,93430.75
2022-11-24T19:00:08.171Z,93427.06
2022-11-24T19:03:11.371Z,93422.19
2022-11-24T19:06:22.647Z,93424.69
2022-11-24T19:09:26.392Z,93425.69
2022-11-24T19:12:29.422Z,93426.25
2022-11-24T19:15:35.294Z,93426.38
2022-11-24T19:18:39.012Z,93425.22
2022-11-24T19:21:42.101Z,93413.22
2022-11-24T19:24:47.983Z,93419.34
2022-11-24T19:27:50.772Z,93409.53
2022-11-24T19:30:54.048Z,93413.16
2022-11-24T19:33:58.870Z,93415.56
2022-11-24T19:37:02.009Z,93419.69
2022-11-24T19:40:06.186Z,93423.56
2022-11-24T19:43:09.107Z,93414.75
2022-11-24T19:46:15.117Z,93417.97
2022-11-24T19:49:19.164Z,93411.69
2022-11-24T19:52:23.647Z,93414.28
2022-11-24T19:55:26.959Z,93412.81
2022-11-24T19:58:30.799Z,93413.47
2022-11-24T20:01:38.239Z,93420.03
2022-11-24T20:04:43.551Z,93410.06
2022-11-24T20:07:47.598Z,93405.94
2022-11-24T20:10:51.275Z,93413.06
2022-11-24T20:13:55.350Z,93410.50
2022-11-24T20:16:59.273Z,93405.78
2022-11-24T20:20:02.132Z,93411.78
2022-11-24T20:23:05.610Z,93411.78
2022-11-24T20:26:14.689Z,93411.09
2022-11-24T20:29:18.141Z,93411.09
2022-11-24T20:32:21.644Z,93399.97
2022-11-24T20:35:25.591Z,93415.75
2022-11-24T20:38:31.599Z,93415.75
2022-11-24T20:41:36.647Z,93421.56
2022-11-24T20:44:39.688Z,93412.28
2022-11-24T20:47:42.603Z,93421.53
2022-11-24T20:50:51.118Z,93412.88
2022-11-24T20:53:58.434Z,93417.59
2022-11-24T20:57:02.048Z,93406.28
2022-11-24T21:00:06.728Z,93413.47
2022-11-24T21:03:10.231Z,93415.94
2022-11-24T21:06:15.198Z,93418.31
2022-11-24T21:09:19.851Z,93420.66
2022-11-24T21:12:23.227Z,93421.44
2022-11-24T21:15:26.774Z,93419.25
2022-11-24T21:18:30.691Z,93427.91
2022-11-24T21:21:35.942Z,93422.25
2022-11-24T21:24:39.103Z,93426.13
2022-11-24T21:27:41.867Z,93429.97
2022-11-24T21:30:45.020Z,93425.44
2022-11-24T21:33:50.808Z,93425.34
2022-11-24T21:36:53.736Z,93434.28
2022-11-24T21:39:56.868Z,93435.19
2022-11-24T21:43:00.211Z,93440.50
2022-11-24T21:46:11.801Z,93438.00
2022-11-24T21:49:15.467Z,93437.28
2022-11-24T21:52:19.241Z,93447.56
2022-11-24T21:55:22.413Z,93451.81
2022-11-24T21:58:26.886Z,93445.06
2022-11-24T22:01:30.864Z,93452.69
2022-11-24T22:04:34.676Z,93450.06
2022-11-24T22:07:38.238Z,93445.34
2022-11-24T22:10:41.100Z,93452.56
2022-11-24T22:13:45.164Z,93454.75
2022-11-24T22:16:48.072Z,93455.06
2022-11-24T22:19:51.288Z,93455.78
2022-11-24T22:22:54.914Z,93464.91
2022-11-24T22:26:03.787Z,93465.03
2022-11-24T22:29:08.266Z,93472.84
2022-11-24T22:32:12.388Z,93471.19
2022-11-24T22:35:15.652Z,93471.66
2022-11-24T22:38:18.928Z,93470.19
2022-11-24T22:41:22.747Z,93479.31
2022-11-24T22:44:26.746Z,93477.69
2022-11-24T22:47:30.618Z,93491.38
2022-11-24T22:50:33.562Z,93478.38
2022-11-24T22:53:36.927Z,93475.16
2022-11-24T22:56:39.798Z,93492.19
2022-11-24T22:59:42.593Z,93490.59
2022-11-24T23:02:45.413Z,93494.88
2022-11-24T23:05:48.947Z,93488.22
2022-11-24T23:08:52.935Z,93489.50
2022-11-24T23:11:56.624Z,93495.69
2022-11-24T23:14:59.445Z,93503.97
2022-11-24T23:18:03.030Z,93497.63
2022-11-24T23:21:16.982Z,93506.88
2022-11-24T23:24:20.286Z,93512.31
2022-11-24T23:27:23.763Z,93513.06
2022-11-24T23:30:26.689Z,93523.53
2022-11-24T23:33:30.022Z,93522.63
2022-11-24T23:36:34.433Z,93527.34
2022-11-24T23:39:37.291Z,93528.50
2022-11-24T23:42:40.578Z,93523.78
2022-11-24T23:45:43.480Z,93528.06
2022-11-24T23:48:46.611Z,93542.78
2022-11-24T23:51:50.201Z,93547.91
2022-11-24T23:54:53.008Z,93550.28
2022-11-24T23:57:55.831Z,93555.03
